Time;durP1;ratioP1;P1;durP2;ratioP2;P2;SDS_P1;SDS_P2;PMS_P1;PMS_P2;Temp;Humidity;BMP_temperature;BMP_pressure;BME280_temperature;BME280_humidity;BME280_pressure;Samples;Min_cycle;Max_cycle;Signal;HPM_P1;HPM_P2
2024/01/20 00:01:44;;;;;;;1.25;0.95;;;;;;;4.01;76.58;100279.69;4997100;28;20567;-87
2024/01/20 00:04:16;;;;;;;1.65;0.82;;;;;;;4.08;78.41;100289.47;4999906;28;20042;-85
2024/01/20 00:06:45;;;;;;;1.35;0.80;;;;;;;4.04;76.19;100290.97;4998260;28;20148;-86
2024/01/20 00:12:03;;;;;;;1.88;0.68;;;;;;;4.01;78.21;100284.81;4996710;28;20053;-85
2024/01/20 00:14:43;;;;;;;3.72;1.25;;;;;;;3.99;78.20;100300.13;4986110;28;20050;-86
2024/01/20 00:17:12;;;;;;;2.13;0.90;;;;;;;3.97;76.33;100287.25;4993116;28;20056;-84
2024/01/20 00:19:40;;;;;;;2.38;0.90;;;;;;;3.98;75.66;100289.00;5000208;28;20065;-85
2024/01/20 00:22:09;;;;;;;3.05;1.08;;;;;;;3.99;78.66;100287.34;4990826;28;20054;-88
2024/01/20 00:24:41;;;;;;;2.25;1.20;;;;;;;4.03;82.09;100290.91;4995852;28;20043;-86
2024/01/20 00:27:12;;;;;;;1.43;0.93;;;;;;;4.01;79.08;100295.97;4988347;28;20084;-86
2024/01/20 00:29:41;;;;;;;1.80;0.90;;;;;;;3.95;80.02;100283.72;4996311;28;20124;-83
2024/01/20 00:32:09;;;;;;;4.85;0.90;;;;;;;3.88;77.00;100280.81;4998720;28;20050;-84
2024/01/20 00:34:49;;;;;;;1.13;0.80;;;;;;;3.86;76.53;100275.63;4993561;28;20046;-84
2024/01/20 00:37:18;;;;;;;0.50;0.40;;;;;;;3.87;75.53;100286.72;4998842;28;20050;-88
2024/01/20 00:39:47;;;;;;;1.35;0.70;;;;;;;3.85;76.51;100275.53;5002961;28;20114;-85
2024/01/20 00:42:24;;;;;;;1.65;0.80;;;;;;;3.90;78.76;100287.75;4991620;28;20066;-85
2024/01/20 00:44:53;;;;;;;1.08;0.70;;;;;;;3.82;78.57;100281.38;4990984;28;20061;-82
2024/01/20 00:47:22;;;;;;;0.77;0.57;;;;;;;3.83;76.14;100283.16;4992162;28;20062;-88
2024/01/20 00:49:51;;;;;;;1.20;0.82;;;;;;;3.85;76.96;100278.09;4990055;28;20050;-89
2024/01/20 00:52:30;;;;;;;3.80;0.75;;;;;;;3.84;77.57;100272.09;5000057;28;20137;-90
2024/01/20 00:54:59;;;;;;;2.22;0.90;;;;;;;3.87;80.25;100273.91;4989261;28;20138;-89
2024/01/20 00:57:30;;;;;;;3.83;1.10;;;;;;;3.88;80.06;100280.81;4994129;28;20054;-85
2024/01/20 01:00:04;;;;;;;2.38;1.00;;;;;;;3.80;79.48;100267.63;4993589;28;20070;-87
2024/01/20 01:02:33;;;;;;;1.08;0.82;;;;;;;3.85;78.70;100268.75;4993170;28;20050;-86
2024/01/20 01:05:01;;;;;;;1.33;0.88;;;;;;;3.84;77.93;100254.19;4994060;28;20088;-89
2024/01/20 01:07:29;;;;;;;1.48;0.88;;;;;;;3.89;78.54;100262.09;4993760;28;20070;-84
2024/01/20 01:10:11;;;;;;;2.55;1.10;;;;;;;3.85;78.92;100266.19;4994465;28;20093;-85
2024/01/20 01:12:42;;;;;;;2.20;1.33;;;;;;;3.84;77.72;100272.09;4996590;28;20237;-85
2024/01/20 01:15:11;;;;;;;0.95;0.68;;;;;;;3.80;77.72;100252.28;4992223;28;20054;-91
2024/01/20 01:17:40;;;;;;;1.30;0.55;;;;;;;3.80;77.43;100246.28;4991415;28;20077;-89
2024/01/20 01:20:15;;;;;;;1.20;0.70;;;;;;;3.75;77.54;100249.50;4991569;28;20129;-89
2024/01/20 01:22:44;;;;;;;1.00;0.77;;;;;;;3.74;77.20;100236.66;4997341;28;20046;-88
2024/01/20 01:25:12;;;;;;;1.02;0.70;;;;;;;3.66;77.96;100230.25;4998033;28;20113;-89
2024/01/20 01:27:43;;;;;;;1.38;0.60;;;;;;;3.73;78.33;100246.00;5004046;28;20058;-88
2024/01/20 01:30:15;;;;;;;1.73;0.75;;;;;;;3.65;77.73;100225.97;4998995;28;20062;-88
2024/01/20 01:32:44;;;;;;;1.40;0.87;;;;;;;3.65;76.78;100215.72;4996616;28;20124;-89
2024/01/20 01:35:13;;;;;;;2.67;1.05;;;;;;;3.67;77.50;100239.72;5002461;28;20362;-88
2024/01/20 01:37:42;;;;;;;1.17;0.73;;;;;;;3.61;78.15;100226.59;5036998;28;20117;-91
2024/01/20 01:40:20;;;;;;;0.95;0.73;;;;;;;3.63;78.42;100230.13;5039155;28;20072;-88
2024/01/20 01:42:58;;;;;;;1.17;0.90;;;;;;;3.62;79.13;100220.69;5030379;28;20062;-87
2024/01/20 01:45:32;;;;;;;1.13;0.80;;;;;;;3.59;78.49;100230.78;5029900;28;20139;-87
2024/01/20 01:48:01;;;;;;;1.35;0.77;;;;;;;3.55;78.59;100206.72;5033734;28;20398;-88
2024/01/20 01:50:30;;;;;;;4.53;1.35;;;;;;;3.55;80.66;100216.94;5041710;28;20053;-87
2024/01/20 01:56:00;;;;;;;1.92;1.00;;;;;;;3.52;79.34;100204.88;5033816;28;20044;-86
2024/01/20 01:58:37;;;;;;;2.53;1.15;;;;;;;3.50;79.27;100201.38;5031842;28;20103;-89
2024/01/20 02:01:05;;;;;;;2.00;1.08;;;;;;;3.52;79.74;100204.88;5037354;28;20049;-89
2024/01/20 02:03:37;;;;;;;2.60;1.08;;;;;;;3.50;79.37;100196.25;5037826;28;20105;-89
2024/01/20 02:06:18;;;;;;;1.67;1.08;;;;;;;3.53;78.74;100191.31;5032899;28;20053;-89
2024/01/20 02:08:48;;;;;;;1.05;0.75;;;;;;;3.53;79.75;100188.75;5038532;28;20110;-88
2024/01/20 02:11:19;;;;;;;1.98;0.88;;;;;;;3.59;79.83;100197.50;5033849;28;20057;-86
2024/01/20 02:13:57;;;;;;;1.23;0.68;;;;;;;3.55;78.18;100199.03;5019573;28;20631;-90
2024/01/20 02:16:26;;;;;;;1.42;0.70;;;;;;;3.55;77.91;100215.28;5029032;28;20053;-87
2024/01/20 02:19:03;;;;;;;1.60;0.80;;;;;;;3.55;79.88;100224.63;5037169;28;20116;-88
2024/01/20 02:21:41;;;;;;;1.20;0.82;;;;;;;3.48;78.57;100217.44;5034472;28;20049;-89
2024/01/20 02:24:13;;;;;;;1.40;0.77;;;;;;;3.50;78.36;100231.19;5036454;28;20044;-91
2024/01/20 02:26:42;;;;;;;2.00;1.27;;;;;;;3.50;77.48;100221.81;5039725;28;20063;-89
2024/01/20 02:29:14;;;;;;;1.75;0.73;;;;;;;3.49;77.78;100198.75;5036970;28;20057;-91
2024/01/20 02:48:52;;;;;;;1.85;0.95;;;;;;;3.44;77.57;100170.41;5120138;22;20046;-87
2024/01/20 03:35:28;;;;;;;2.33;1.00;;;;;;;3.26;80.41;100200.19;5582058;23;20049;-84
2024/01/20 03:37:57;;;;;;;1.75;0.80;;;;;;;3.21;79.35;100182.06;5009320;28;20112;-84
2024/01/20 03:40:29;;;;;;;2.08;1.02;;;;;;;3.24;79.46;100196.66;5007747;28;20050;-84
2024/01/20 03:43:09;;;;;;;1.25;1.15;;;;;;;3.22;78.64;100185.47;5015101;28;20081;-85
2024/01/20 03:45:39;;;;;;;1.20;1.00;;;;;;;3.21;79.62;100169.28;5004320;28;20054;-85
2024/01/20 03:48:08;;;;;;;2.55;1.13;;;;;;;3.19;79.59;100158.09;5012290;28;20050;-84
2024/01/20 04:34:36;;;;;;;1.40;1.00;;;;;;;3.03;81.09;100178.59;5305384;23;20046;-87
2024/01/20 04:37:06;;;;;;;2.95;1.45;;;;;;;3.02;80.51;100175.13;5010761;28;20133;-86
2024/01/20 06:05:35;;;;;;;2.45;1.10;;;;;;;3.09;81.41;100125.19;4880937;22;20049;-87
2024/01/20 06:08:04;;;;;;;2.33;1.23;;;;;;;3.09;81.00;100131.22;5012598;28;20074;-85
2024/01/20 06:10:44;;;;;;;1.15;1.00;;;;;;;3.09;80.47;100133.75;5017513;28;20104;-85
2024/01/20 16:10:37;;;;;;;3.50;1.42;;;;;;;3.39;81.19;99526.56;5077959;23;20046;-89
2024/01/20 16:13:06;;;;;;;2.22;1.00;;;;;;;3.39;80.98;99511.22;5025578;28;20049;-88
2024/01/20 16:15:35;;;;;;;2.05;1.33;;;;;;;3.40;81.08;99507.88;5032793;28;20136;-87
2024/01/20 16:18:15;;;;;;;1.70;0.90;;;;;;;3.38;79.75;99489.91;5033925;28;20105;-90
2024/01/20 16:20:44;;;;;;;1.73;1.08;;;;;;;3.45;79.29;99489.31;5037917;28;20085;-88
2024/01/20 16:23:16;;;;;;;2.17;0.98;;;;;;;3.49;81.41;99475.84;5043075;28;20041;-86
2024/01/20 16:25:55;;;;;;;2.60;1.40;;;;;;;3.50;80.08;99482.69;5036421;28;20049;-88
2024/01/20 16:28:24;;;;;;;1.70;0.95;;;;;;;3.52;86.20;99483.63;5034188;28;20397;-87
2024/01/20 16:30:53;;;;;;;1.88;1.02;;;;;;;3.58;82.19;99471.91;5030223;28;20057;-88
2024/01/20 16:33:23;;;;;;;2.20;0.85;;;;;;;3.72;79.61;99468.16;5041683;28;20049;-90
2024/01/20 16:35:51;;;;;;;1.75;1.10;;;;;;;3.78;77.99;99473.50;5037592;28;20394;-87
2024/01/20 16:38:20;;;;;;;1.30;0.80;;;;;;;3.78;77.02;99486.28;5042248;28;20057;-88
2024/01/20 16:40:51;;;;;;;2.60;1.02;;;;;;;3.79;77.90;99482.91;5040840;28;20045;-88
2024/01/20 16:43:19;;;;;;;2.05;0.93;;;;;;;3.84;77.44;99491.59;5033557;28;20072;-85
2024/01/20 16:48:30;;;;;;;2.67;1.10;;;;;;;3.94;74.34;99483.44;5030171;28;20057;-87
2024/01/20 16:50:59;;;;;;;3.13;0.98;;;;;;;3.94;73.98;99478.34;5036893;28;20061;-87
2024/01/20 16:53:28;;;;;;;2.38;1.35;;;;;;;4.01;74.70;99473.41;5032692;28;20083;-85
2024/01/20 16:56:10;;;;;;;1.70;0.98;;;;;;;4.11;73.48;99462.69;5027505;28;20479;-89
2024/01/20 16:58:39;;;;;;;2.10;1.15;;;;;;;4.16;75.00;99462.00;5019881;28;20044;-89
2024/01/20 17:01:07;;;;;;;1.55;0.68;;;;;;;4.30;74.61;99464.19;5033527;28;20050;-89
2024/01/20 17:03:46;;;;;;;1.88;1.00;;;;;;;4.25;74.31;99456.34;5030769;28;20064;-86
2024/01/20 17:06:19;;;;;;;1.15;0.90;;;;;;;4.33;75.08;99462.59;5034140;28;20504;-92
2024/01/20 17:08:48;;;;;;;2.42;1.27;;;;;;;4.69;72.16;99459.50;5041489;28;20127;-91
2024/01/20 17:11:25;;;;;;;1.10;0.68;;;;;;;4.83;70.85;99473.63;5032129;28;20049;-92
2024/01/20 17:14:02;;;;;;;2.50;0.80;;;;;;;5.28;67.68;99492.09;5023743;28;20054;-90
2024/01/20 17:24:21;;;;;;;1.45;1.00;;;;;;;5.52;64.79;99480.00;5187932;23;20064;-89
2024/01/20 17:26:52;;;;;;;1.63;0.73;;;;;;;5.49;64.62;99469.63;5036062;28;20091;-87
2024/01/20 17:29:21;;;;;;;2.45;1.20;;;;;;;5.79;63.68;99453.34;5037088;28;20064;-87
2024/01/20 17:32:00;;;;;;;;;;;;;;;;;;;;;
2024/01/20 17:34:29;;;;;;;0.98;0.77;;;;;;;6.59;59.35;99448.63;5040940;28;20056;-88
2024/01/20 17:37:02;;;;;;;1.83;0.88;;;;;;;6.52;59.30;99436.47;5032559;28;20046;-87
2024/01/20 17:39:44;;;;;;;3.08;1.17;;;;;;;6.41;60.06;99443.91;5035230;28;20080;-87
2024/01/20 17:42:14;;;;;;;2.25;1.45;;;;;;;6.30;61.17;99440.22;5037495;28;20638;-88
2024/01/20 17:44:43;;;;;;;2.67;1.00;;;;;;;6.31;61.55;99439.38;5041465;28;20069;-87
2024/01/20 17:47:12;;;;;;;2.45;1.00;;;;;;;7.07;59.97;99449.75;5035968;28;20484;-87
2024/01/20 17:49:47;;;;;;;1.42;0.82;;;;;;;7.62;57.64;99443.19;5049311;28;20045;-86
2024/01/20 17:52:16;;;;;;;2.58;1.15;;;;;;;8.16;52.34;99445.13;5033969;28;20060;-85
2024/01/20 17:54:45;;;;;;;2.75;1.25;;;;;;;8.63;50.66;99433.91;5037573;28;20073;-84
2024/01/20 17:57:29;;;;;;;1.98;0.98;;;;;;;10.22;47.29;99445.44;5032897;28;20049;-87
2024/01/20 17:59:58;;;;;;;2.03;0.98;;;;;;;11.73;43.30;99449.94;5036304;28;20055;-88
2024/01/20 18:02:27;;;;;;;4.18;1.30;;;;;;;12.77;40.23;99444.09;5559235;23;20054;-87
2024/01/20 18:54:13;;;;;;;2.88;1.10;;;;;;;8.02;49.36;99444.00;5956571;22;20061;-87
2024/01/20 19:09:41;;;;;;;2.85;1.10;;;;;;;7.34;53.85;99423.75;5964179;22;20061;-89
2024/01/20 19:12:10;;;;;;;1.98;1.00;;;;;;;7.27;54.92;99409.91;5042136;28;20065;-86
2024/01/20 19:33:14;;;;;;;4.07;1.23;;;;;;;7.08;55.28;99361.47;4887336;22;20058;-87
2024/01/20 19:35:43;;;;;;;2.05;1.25;;;;;;;7.05;56.66;99349.41;5016199;28;20061;-89
2024/01/20 19:38:15;;;;;;;2.33;0.90;;;;;;;7.02;58.12;99333.06;5022889;28;20116;-89
2024/01/20 19:40:48;;;;;;;2.60;1.05;;;;;;;7.06;57.26;99316.84;5034006;28;20077;-89
2024/01/20 19:43:16;;;;;;;;;;;;;;;7.08;57.56;99305.75;5026714;28;20080;-86
2024/01/20 19:45:45;;;;;;;1.73;0.75;;;;;;;7.07;58.01;99286.00;5028193;28;19960;-89
2024/01/20 19:48:20;;;;;;;2.30;1.15;;;;;;;7.13;56.35;99290.41;5014159;28;20066;-86
2024/01/20 19:50:54;;;;;;;3.30;1.17;;;;;;;7.14;56.43;99292.13;5018953;28;20500;-88
2024/01/20 19:53:23;;;;;;;2.60;0.93;;;;;;;7.17;58.17;99278.47;5018880;28;20046;-87
2024/01/20 19:55:52;;;;;;;2.30;0.90;;;;;;;7.18;55.72;99275.94;5018205;28;20061;-87
2024/01/20 19:58:29;;;;;;;1.95;0.90;;;;;;;7.20;58.34;99276.84;5023838;28;20049;-89
2024/01/20 20:00:58;;;;;;;3.05;1.20;;;;;;;7.16;56.05;99276.75;5020459;28;20045;-90
2024/01/20 20:03:28;;;;;;;2.05;0.90;;;;;;;7.14;58.85;99294.72;5022139;28;20077;-90
2024/01/20 20:06:05;;;;;;;2.50;0.82;;;;;;;7.10;58.28;99286.09;5021192;28;20466;-86
2024/01/20 20:08:35;;;;;;;1.80;0.93;;;;;;;7.02;57.13;99274.75;5022866;28;20037;-89
2024/01/20 20:11:04;;;;;;;1.67;1.15;;;;;;;6.90;57.17;99256.53;5022123;28;20056;-91
2024/01/20 20:13:33;;;;;;;3.33;1.20;;;;;;;6.82;58.35;99279.50;5009691;28;20077;-91
2024/01/20 20:16:13;;;;;;;9.95;1.08;;;;;;;6.71;57.45;99287.00;5012131;28;20053;-86
2024/01/20 20:18:45;;;;;;;2.95;0.90;;;;;;;6.71;59.24;99289.56;5018178;28;20056;-88
2024/01/20 20:21:17;;;;;;;3.60;1.10;;;;;;;6.64;59.53;99286.81;5020864;28;20089;-90
2024/01/20 20:23:51;;;;;;;2.63;1.10;;;;;;;6.56;59.36;99290.94;5025995;28;20053;-88
2024/01/20 20:26:20;;;;;;;1.75;1.08;;;;;;;6.50;59.84;99282.28;5021471;28;20505;-88
2024/01/20 20:28:49;;;;;;;0.88;0.70;;;;;;;6.53;63.38;99304.59;5021334;28;20068;-86
2024/01/20 20:31:29;;;;;;;;;;;;;;;;;;;;;
2024/01/20 20:34:01;;;;;;;1.73;0.85;;;;;;;6.63;63.33;99308.22;5018349;28;20057;-87
2024/01/20 20:49:27;;;;;;;1.63;1.10;;;;;;;6.43;68.67;99320.63;5841222;22;20088;-88
2024/01/20 20:51:56;;;;;;;1.48;0.85;;;;;;;6.35;70.99;99317.88;5036073;28;20071;-87
2024/01/20 20:54:32;;;;;;;1.33;0.63;;;;;;;6.36;73.14;99309.31;5036572;28;20068;-88
2024/01/20 21:28:11;;;;;;;1.95;1.05;;;;;;;5.83;90.16;99237.00;5136960;23;20065;-82
2024/01/20 21:30:40;;;;;;;2.30;1.23;;;;;;;5.78;91.28;99220.63;5031997;28;20045;-84
2024/01/20 21:33:08;;;;;;;3.60;1.40;;;;;;;5.75;90.93;99221.44;5036372;28;20099;-83
2024/01/20 21:35:37;;;;;;;3.08;1.38;;;;;;;5.74;90.12;99208.56;5034291;28;20061;-82
2024/01/20 21:38:07;;;;;;;3.75;1.25;;;;;;;5.73;91.27;99206.84;5028503;28;20147;-82
2024/01/20 21:40:35;;;;;;;3.47;1.75;;;;;;;5.67;92.73;99187.88;5031639;28;20136;-82
2024/01/20 21:43:07;;;;;;;4.22;1.80;;;;;;;5.71;94.71;99182.81;5029852;28;20045;-83
2024/01/20 21:45:36;;;;;;;2.05;1.30;;;;;;;5.70;95.09;99170.81;5037035;28;20049;-83
2024/01/20 21:48:05;;;;;;;1.52;0.88;;;;;;;5.62;95.25;99158.66;5040791;28;20084;-84
2024/01/20 21:50:38;;;;;;;1.83;1.20;;;;;;;5.52;91.56;99150.72;5034805;28;20057;-82
2024/01/20 21:53:07;;;;;;;1.85;1.02;;;;;;;5.42;92.31;99150.50;5034836;28;20099;-84
2024/01/20 21:55:36;;;;;;;2.28;1.17;;;;;;;5.43;92.29;99146.25;5030996;28;20050;-84
2024/01/20 21:58:06;;;;;;;3.83;1.50;;;;;;;5.42;93.93;99154.75;5031959;28;20053;-84
2024/01/20 22:00:40;;;;;;;2.28;1.20;;;;;;;5.54;93.96;99160.19;5033667;28;20060;-84
2024/01/20 22:03:08;;;;;;;3.70;1.60;;;;;;;5.58;94.94;99176.53;5028805;28;20049;-83
2024/01/20 22:05:39;;;;;;;2.95;1.05;;;;;;;5.60;96.25;99170.59;5026581;28;20076;-84
2024/01/20 22:08:14;;;;;;;1.52;0.90;;;;;;;5.60;96.37;99180.00;5027751;28;20152;-85
2024/01/20 22:18:29;;;;;;;2.08;1.15;;;;;;;5.47;97.65;99250.66;4985878;28;20065;-85
2024/01/20 22:20:59;;;;;;;2.35;1.10;;;;;;;5.44;97.53;99242.88;4994420;28;20054;-84
2024/01/20 22:23:27;;;;;;;2.38;1.15;;;;;;;5.31;96.07;99233.13;4995104;28;20058;-84
2024/01/20 22:25:58;;;;;;;2.03;1.20;;;;;;;5.03;98.13;99235.81;4991989;28;20050;-85
2024/01/20 22:28:27;;;;;;;2.05;0.90;;;;;;;4.99;99.91;99251.06;4993943;28;20505;-85
2024/01/20 22:30:56;;;;;;;1.77;0.90;;;;;;;4.94;100.00;99252.66;4989375;28;20115;-83
2024/01/20 22:33:26;;;;;;;3.40;1.23;;;;;;;4.88;100.00;99258.50;4995553;28;20054;-85
2024/01/20 22:36:08;;;;;;;1.83;1.00;;;;;;;4.83;100.00;99271.19;4990424;28;20145;-83
2024/01/20 22:38:40;;;;;;;1.77;0.85;;;;;;;4.74;100.00;99283.72;4990581;28;20085;-84
2024/01/20 22:41:08;;;;;;;2.22;1.20;;;;;;;4.66;100.00;99282.63;4997271;28;20061;-83
2024/01/20 22:43:47;;;;;;;;;;;;;;;;;;;;;
2024/01/20 22:46:20;;;;;;;2.80;1.35;;;;;;;4.67;100.00;99229.69;4995421;28;20050;-84
2024/01/20 22:48:48;;;;;;;2.05;1.13;;;;;;;4.66;100.00;99205.75;5001857;28;20132;-84
2024/01/20 22:51:31;;;;;;;2.55;1.23;;;;;;;4.61;100.00;99190.25;4999441;28;20050;-84
2024/01/20 22:54:00;;;;;;;4.05;1.10;;;;;;;4.60;100.00;99190.22;4999650;28;20046;-83
2024/01/20 22:56:29;;;;;;;3.33;1.05;;;;;;;4.60;100.00;99183.41;5000810;28;20054;-89
2024/01/20 22:59:13;;;;;;;3.90;1.30;;;;;;;4.56;100.00;99152.53;5002770;28;20064;-86
2024/01/20 23:20:13;;;;;;;1.77;1.10;;;;;;;4.48;100.00;99166.81;5012952;28;20038;-85
2024/01/20 23:22:45;;;;;;;3.55;1.13;;;;;;;4.41;100.00;99147.84;5010726;28;20057;-85
2024/01/20 23:25:14;;;;;;;4.22;1.40;;;;;;;4.46;100.00;99151.41;5013595;28;20078;-83
2024/01/20 23:27:43;;;;;;;4.60;1.13;;;;;;;4.49;100.00;99142.94;5017751;28;20046;-85
2024/01/20 23:30:12;;;;;;;1.90;1.08;;;;;;;4.47;100.00;99134.38;5008369;28;20127;-84
2024/01/20 23:32:49;;;;;;;2.33;1.15;;;;;;;4.55;100.00;99137.97;5016179;28;20141;-85
2024/01/20 23:35:21;;;;;;;4.57;1.23;;;;;;;4.57;100.00;99131.22;5018486;28;20054;-85
2024/01/20 23:37:56;;;;;;;1.73;1.15;;;;;;;4.59;100.00;99116.75;5011983;28;20042;-85
2024/01/20 23:42:59;;;;;;;1.40;0.77;;;;;;;4.58;100.00;99122.69;5038923;22;20050;-85
2024/01/20 23:45:28;;;;;;;1.52;1.17;;;;;;;4.51;100.00;99115.66;4997806;28;20568;-83
2024/01/20 23:48:00;;;;;;;1.95;1.00;;;;;;;4.55;100.00;99123.47;4992613;28;20108;-86
2024/01/20 23:50:34;;;;;;;3.97;1.17;;;;;;;4.47;100.00;99101.06;4992021;28;20051;-87
2024/01/20 23:53:03;;;;;;;3.38;1.42;;;;;;;4.54;100.00;99118.34;4994536;28;20508;-84
2024/01/20 23:55:32;;;;;;;2.15;0.70;;;;;;;4.51;100.00;99134.50;4995597;28;20077;-82
2024/01/20 23:58:03;;;;;;;2.17;1.15;;;;;;;4.52;100.00;99143.03;5004184;28;20137;-82
